createdAt,value
2018-12-15T00:00:43.817Z,15.20
2018-12-15T00:01:46.313Z,15.83
2018-12-15T00:02:48.845Z,15.10
2018-12-15T00:03:51.349Z,15.08
2018-12-15T00:04:53.846Z,15.70
2018-12-15T00:05:56.340Z,15.00
2018-12-15T00:06:58.885Z,14.78
2018-12-15T00:08:01.405Z,15.00
2018-12-15T00:09:05.112Z,14.30
2018-12-15T00:10:07.721Z,15.78
2018-12-15T00:11:10.257Z,14.58
2018-12-15T00:12:12.759Z,14.28
2018-12-15T00:13:15.265Z,14.55
2018-12-15T00:14:17.770Z,14.47
2018-12-15T00:15:20.288Z,15.00
2018-12-15T00:16:22.822Z,13.05
2018-12-15T00:17:25.336Z,13.62
2018-12-15T00:18:28.269Z,14.28
2018-12-15T00:19:30.826Z,15.03
2018-12-15T00:20:33.330Z,14.00
2018-12-15T00:21:35.837Z,14.25
2018-12-15T00:22:38.385Z,14.75
2018-12-15T00:23:40.889Z,14.10
2018-12-15T00:24:43.441Z,14.70
2018-12-15T00:25:45.946Z,15.18
2018-12-15T00:26:48.461Z,15.43
2018-12-15T00:27:50.962Z,15.25
2018-12-15T00:28:53.505Z,14.93
2018-12-15T00:29:56.014Z,14.90
2018-12-15T00:30:58.521Z,15.10
2018-12-15T00:32:01.184Z,15.43
2018-12-15T00:33:03.726Z,14.30
2018-12-15T00:34:06.289Z,14.58
2018-12-15T00:35:08.824Z,15.30
2018-12-15T00:36:11.326Z,16.05
2018-12-15T00:37:13.833Z,14.63
2018-12-15T00:38:16.377Z,14.78
2018-12-15T00:39:18.885Z,14.85
2018-12-15T00:40:21.392Z,15.80
2018-12-15T00:41:23.910Z,15.00
2018-12-15T00:42:33.021Z,16.73
2018-12-15T00:43:35.570Z,16.37
2018-12-15T00:44:38.077Z,15.40
2018-12-15T00:45:40.610Z,14.75
2018-12-15T00:46:43.165Z,15.48
2018-12-15T00:47:45.715Z,14.30
2018-12-15T00:48:48.258Z,14.70
2018-12-15T00:49:50.757Z,15.58
2018-12-15T00:50:53.302Z,16.80
2018-12-15T00:51:55.810Z,14.80
2018-12-15T00:52:58.356Z,15.25
2018-12-15T00:54:00.913Z,17.98
2018-12-15T00:55:03.620Z,15.63
2018-12-15T00:56:06.124Z,16.20
2018-12-15T00:57:08.629Z,16.00
2018-12-15T00:58:11.169Z,15.15
2018-12-15T00:59:13.708Z,14.65
2018-12-15T01:00:16.222Z,15.13
2018-12-15T01:01:18.726Z,16.25
2018-12-15T01:02:21.238Z,18.10
2018-12-15T01:03:23.780Z,14.15
2018-12-15T01:04:26.292Z,16.17
2018-12-15T01:05:28.839Z,15.72
2018-12-15T01:06:31.345Z,14.85
2018-12-15T01:07:35.195Z,14.98
2018-12-15T01:08:37.941Z,16.80
2018-12-15T01:09:40.485Z,14.47
2018-12-15T01:10:43.037Z,16.00
2018-12-15T01:11:45.603Z,15.13
2018-12-15T01:12:48.109Z,16.32
2018-12-15T01:13:50.638Z,17.10
2018-12-15T01:14:53.138Z,16.42
2018-12-15T01:15:55.678Z,17.27
2018-12-15T01:16:58.186Z,16.32
2018-12-15T01:18:00.706Z,16.42
2018-12-15T01:19:03.253Z,16.77
2018-12-15T01:20:05.860Z,15.40
2018-12-15T01:21:08.379Z,16.10
2018-12-15T01:22:10.886Z,16.48
2018-12-15T01:23:13.390Z,17.10
2018-12-15T01:24:15.936Z,17.02
2018-12-15T01:25:18.442Z,17.27
2018-12-15T01:26:21.001Z,16.37
2018-12-15T01:27:23.508Z,14.93
2018-12-15T01:28:26.057Z,15.08
2018-12-15T01:29:28.572Z,16.07
2018-12-15T01:30:31.069Z,16.50
2018-12-15T01:31:33.578Z,15.10
2018-12-15T01:32:36.133Z,15.10
2018-12-15T01:33:38.637Z,16.48
2018-12-15T01:34:41.181Z,17.30
2018-12-15T01:35:43.686Z,15.65
2018-12-15T01:36:46.192Z,15.72
2018-12-15T01:37:48.697Z,16.57
2018-12-15T01:38:51.210Z,15.60
2018-12-15T01:39:53.750Z,16.62
2018-12-15T01:40:56.256Z,16.27
2018-12-15T01:41:58.775Z,16.80
2018-12-15T01:43:01.277Z,16.10
2018-12-15T01:44:03.841Z,17.50
2018-12-15T01:45:06.482Z,16.50
2018-12-15T01:46:08.999Z,16.12
2018-12-15T01:47:11.505Z,15.83
2018-12-15T01:48:14.107Z,16.73
2018-12-15T01:49:16.618Z,16.55
2018-12-15T01:51:28.126Z,15.70
2018-12-15T01:52:30.746Z,16.55
2018-12-15T01:53:33.289Z,16.35
2018-12-15T01:54:35.822Z,16.00
2018-12-15T01:55:38.334Z,15.93
2018-12-15T01:56:40.842Z,13.55
2018-12-15T01:57:43.377Z,13.00
2018-12-15T01:58:45.893Z,14.40
2018-12-15T01:59:48.405Z,14.38
2018-12-15T02:00:50.921Z,13.45
2018-12-15T02:01:58.492Z,13.80
2018-12-15T02:03:00.996Z,13.40
2018-12-15T02:04:03.500Z,14.23
2018-12-15T02:05:06.054Z,14.10
2018-12-15T02:06:08.562Z,14.15
2018-12-15T02:07:11.101Z,11.63
2018-12-15T02:08:13.605Z,13.50
2018-12-15T02:09:16.168Z,13.45
2018-12-15T02:10:18.705Z,13.30
2018-12-15T02:11:21.205Z,12.55
2018-12-15T02:12:23.710Z,13.15
2018-12-15T02:13:26.226Z,13.85
2018-12-15T02:14:28.742Z,13.25
2018-12-15T02:15:31.281Z,13.83
2018-12-15T02:16:33.837Z,14.40
2018-12-15T02:17:36.338Z,15.25
2018-12-15T02:18:38.845Z,14.30
2018-12-15T02:19:41.399Z,16.15
2018-12-15T02:20:43.901Z,14.73
2018-12-15T02:21:46.407Z,16.15
2018-12-15T02:22:48.937Z,15.98
2018-12-15T02:23:51.444Z,15.93
2018-12-15T02:24:54.053Z,16.35
2018-12-15T02:25:56.561Z,16.15
2018-12-15T02:26:59.060Z,15.68
2018-12-15T02:28:01.570Z,14.28
2018-12-15T02:29:04.175Z,13.80
2018-12-15T02:30:07.330Z,15.15
2018-12-15T02:31:09.886Z,15.10
2018-12-15T02:32:12.402Z,14.40
2018-12-15T02:33:14.961Z,14.40
2018-12-15T02:34:17.471Z,13.70
2018-12-15T02:35:20.025Z,14.35
2018-12-15T02:36:22.544Z,14.55
2018-12-15T02:37:25.059Z,13.60
2018-12-15T02:38:27.629Z,15.43
2018-12-15T02:39:30.177Z,15.78
2018-12-15T02:40:32.685Z,15.23
2018-12-15T02:41:35.280Z,14.55
2018-12-15T02:42:37.781Z,13.88
2018-12-15T02:43:40.288Z,13.90
2018-12-15T02:44:42.798Z,13.93
2018-12-15T02:45:45.342Z,13.45
2018-12-15T02:46:47.885Z,15.10
2018-12-15T02:47:50.382Z,13.85
2018-12-15T02:48:52.895Z,15.55
2018-12-15T02:49:55.418Z,14.90
2018-12-15T02:50:57.956Z,14.33
2018-12-15T02:52:00.459Z,14.83
2018-12-15T02:53:02.975Z,14.30
2018-12-15T02:54:05.493Z,14.25
2018-12-15T02:55:08.006Z,15.15
2018-12-15T02:56:10.572Z,13.75
2018-12-15T02:57:13.104Z,14.63
2018-12-15T02:58:15.612Z,15.03
2018-12-15T02:59:18.135Z,14.78
2018-12-15T03:00:20.694Z,15.25
2018-12-15T03:01:23.237Z,13.35
2018-12-15T03:02:25.742Z,15.15
2018-12-15T03:03:28.249Z,13.72
2018-12-15T03:04:30.794Z,12.10
2018-12-15T03:05:33.305Z,13.45
2018-12-15T03:06:35.826Z,14.13
2018-12-15T03:07:38.332Z,14.60
2018-12-15T03:08:40.886Z,14.45
2018-12-15T03:09:43.406Z,13.95
2018-12-15T03:10:45.917Z,14.60
2018-12-15T03:11:48.446Z,13.60
2018-12-15T03:12:50.962Z,13.55
2018-12-15T03:13:53.496Z,14.28
2018-12-15T03:14:55.998Z,14.33
2018-12-15T03:15:58.509Z,14.10
2018-12-15T03:17:04.651Z,14.00
2018-12-15T03:18:07.149Z,14.10
2018-12-15T03:19:11.014Z,15.10
2018-12-15T03:20:13.598Z,15.23
2018-12-15T03:21:16.355Z,13.90
2018-12-15T03:22:18.867Z,15.13
2018-12-15T03:23:21.375Z,13.30
2018-12-15T03:24:23.909Z,13.85
2018-12-15T03:25:26.462Z,14.83
2018-12-15T03:26:28.974Z,14.03
2018-12-15T03:27:31.521Z,14.47
2018-12-15T03:28:34.025Z,14.30
2018-12-15T03:29:36.525Z,13.88
2018-12-15T03:30:39.026Z,14.50
2018-12-15T03:31:41.534Z,14.23
2018-12-15T03:32:44.075Z,14.00
2018-12-15T03:33:46.633Z,15.00
2018-12-15T03:34:49.142Z,14.93
2018-12-15T03:35:51.640Z,14.20
2018-12-15T03:36:54.145Z,14.35
2018-12-15T03:37:56.650Z,14.80
2018-12-15T03:38:59.189Z,15.32
2018-12-15T03:40:01.732Z,14.53
2018-12-15T03:41:04.280Z,15.08
2018-12-15T03:42:06.790Z,13.48
2018-12-15T03:43:09.365Z,13.80
2018-12-15T03:44:11.870Z,13.32
2018-12-15T03:45:14.418Z,13.65
2018-12-15T03:46:16.922Z,13.65
2018-12-15T03:47:19.426Z,14.35
2018-12-15T03:48:21.925Z,13.83
2018-12-15T03:49:24.437Z,14.53
2018-12-15T03:50:26.996Z,15.13
2018-12-15T03:51:29.503Z,14.18
2018-12-15T03:53:40.979Z,13.60
2018-12-15T03:54:43.494Z,16.05
2018-12-15T03:55:46.024Z,15.65
2018-12-15T03:56:48.575Z,15.90
2018-12-15T03:57:51.114Z,15.68
2018-12-15T03:58:53.713Z,15.95
2018-12-15T03:59:56.233Z,15.98
2018-12-15T04:00:58.776Z,15.53
2018-12-15T04:02:01.534Z,16.82
2018-12-15T04:03:04.106Z,16.10
2018-12-15T04:04:06.635Z,16.40
2018-12-15T04:05:09.281Z,15.80
2018-12-15T04:06:11.788Z,16.75
2018-12-15T04:07:14.289Z,14.83
2018-12-15T04:08:16.797Z,14.83
2018-12-15T04:09:19.345Z,15.00
2018-12-15T04:10:21.857Z,15.13
2018-12-15T04:11:24.409Z,16.32
2018-12-15T04:12:26.922Z,16.57
2018-12-15T04:13:29.425Z,15.40
2018-12-15T04:14:31.978Z,15.20
2018-12-15T04:15:34.535Z,15.32
2018-12-15T04:16:37.059Z,14.23
2018-12-15T04:17:39.562Z,15.20
2018-12-15T04:18:42.070Z,15.75
2018-12-15T04:19:44.615Z,16.55
2018-12-15T04:20:47.125Z,14.13
2018-12-15T04:21:49.630Z,14.73
2018-12-15T04:22:52.169Z,15.65
2018-12-15T04:23:54.693Z,15.78
2018-12-15T04:24:57.234Z,15.70
2018-12-15T04:25:59.797Z,14.93
2018-12-15T04:27:02.297Z,16.00
2018-12-15T04:28:04.808Z,15.55
2018-12-15T04:29:09.318Z,16.40
2018-12-15T04:30:11.816Z,16.82
2018-12-15T04:31:14.363Z,17.67
2018-12-15T04:32:16.917Z,16.30
2018-12-15T04:33:19.433Z,16.93
2018-12-15T04:34:21.971Z,17.37
2018-12-15T04:35:24.487Z,13.80
2018-12-15T04:36:27.001Z,14.58
2018-12-15T04:37:29.562Z,15.08
2018-12-15T04:38:32.082Z,14.25
2018-12-15T04:39:34.590Z,14.13
2018-12-15T04:40:37.441Z,15.30
2018-12-15T04:41:39.946Z,14.98
2018-12-15T04:42:42.590Z,13.50
2018-12-15T04:43:45.089Z,15.45
2018-12-15T04:44:47.598Z,14.35
2018-12-15T04:45:50.101Z,14.80
2018-12-15T04:46:52.771Z,14.53
2018-12-15T04:47:55.317Z,14.33
2018-12-15T04:48:57.822Z,14.70
2018-12-15T04:50:00.336Z,14.50
2018-12-15T04:51:02.860Z,15.15
2018-12-15T04:52:05.365Z,13.70
2018-12-15T04:53:07.864Z,14.53
2018-12-15T04:54:10.364Z,14.63
2018-12-15T04:55:12.921Z,15.30
2018-12-15T04:56:15.429Z,13.13
2018-12-15T04:57:17.938Z,15.38
2018-12-15T04:58:20.451Z,14.78
2018-12-15T04:59:22.983Z,14.25
2018-12-15T05:00:25.537Z,15.30
2018-12-15T05:01:28.090Z,14.28
2018-12-15T05:03:39.441Z,15.35
2018-12-15T05:04:41.950Z,14.78
2018-12-15T05:05:44.488Z,15.05
2018-12-15T05:06:46.993Z,15.00
2018-12-15T05:07:49.529Z,15.18
2018-12-15T05:08:52.034Z,14.40
2018-12-15T05:09:54.585Z,14.33
2018-12-15T05:10:57.093Z,16.35
2018-12-15T05:11:59.591Z,15.93
2018-12-15T05:13:02.101Z,15.13
2018-12-15T05:14:04.632Z,14.75
2018-12-15T05:15:07.474Z,14.63
2018-12-15T05:16:09.982Z,15.08
2018-12-15T05:17:12.517Z,13.50
2018-12-15T05:18:18.196Z,13.10
2018-12-15T05:19:19.558Z,13.75
2018-12-15T05:20:22.097Z,13.88
2018-12-15T05:21:24.639Z,11.50
2018-12-15T05:22:27.148Z,13.10
2018-12-15T05:23:29.657Z,13.13
2018-12-15T05:24:32.234Z,13.55
2018-12-15T05:25:34.789Z,13.60
2018-12-15T05:26:37.306Z,12.95
2018-12-15T05:27:39.811Z,13.28
2018-12-15T05:28:42.373Z,13.55
2018-12-15T05:29:44.873Z,12.85
2018-12-15T05:30:47.418Z,13.58
2018-12-15T05:31:49.925Z,12.05
2018-12-15T05:32:52.424Z,11.78
2018-12-15T05:33:54.934Z,12.90
2018-12-15T05:34:57.447Z,11.68
2018-12-15T05:35:59.997Z,10.82
2018-12-15T05:37:02.513Z,11.73
2018-12-15T05:38:05.016Z,10.58
2018-12-15T05:39:07.559Z,11.45
2018-12-15T05:40:10.146Z,11.55
2018-12-15T05:41:12.654Z,12.10
2018-12-15T05:42:15.154Z,12.00
2018-12-15T05:43:17.652Z,11.55
2018-12-15T05:44:20.218Z,11.90
2018-12-15T05:45:22.752Z,11.40
2018-12-15T05:46:25.276Z,12.13
2018-12-15T05:47:27.775Z,11.85
2018-12-15T05:48:30.286Z,11.70
2018-12-15T05:49:32.941Z,12.13
2018-12-15T05:50:35.468Z,11.73
2018-12-15T05:51:38.016Z,12.58
2018-12-15T05:52:40.521Z,12.90
2018-12-15T05:53:43.033Z,12.45
2018-12-15T05:54:45.543Z,12.50
2018-12-15T05:55:48.081Z,12.28
2018-12-15T05:56:50.586Z,13.88
2018-12-15T05:57:53.129Z,12.68
2018-12-15T05:58:55.669Z,12.23
2018-12-15T05:59:58.168Z,12.37
2018-12-15T06:01:00.717Z,11.83
2018-12-15T06:02:04.829Z,11.88
2018-12-15T06:03:07.357Z,11.95
2018-12-15T06:04:09.865Z,12.60
2018-12-15T06:05:12.578Z,12.43
2018-12-15T06:06:15.101Z,12.68
2018-12-15T06:07:17.605Z,12.23
2018-12-15T06:08:20.241Z,11.80
2018-12-15T06:09:22.746Z,12.20
2018-12-15T06:10:25.253Z,11.63
2018-12-15T06:11:27.770Z,11.97
2018-12-15T06:12:30.277Z,11.90
2018-12-15T06:13:32.809Z,10.40
2018-12-15T06:14:35.325Z,11.75
2018-12-15T06:15:37.869Z,11.10
2018-12-15T06:16:40.382Z,10.58
2018-12-15T06:17:42.889Z,11.88
2018-12-15T06:18:45.438Z,12.20
2018-12-15T06:19:47.982Z,12.43
2018-12-15T06:20:50.487Z,11.30
2018-12-15T06:21:53.025Z,12.80
2018-12-15T06:22:55.541Z,13.30
2018-12-15T06:23:58.064Z,12.70
2018-12-15T06:25:00.565Z,12.80
2018-12-15T06:26:03.148Z,13.70
2018-12-15T06:27:05.701Z,13.90
2018-12-15T06:28:08.241Z,12.03
2018-12-15T06:29:10.745Z,13.43
2018-12-15T06:30:13.300Z,12.75
2018-12-15T06:31:15.938Z,12.90
2018-12-15T06:32:18.447Z,12.30
2018-12-15T06:33:20.961Z,12.43
2018-12-15T06:34:23.464Z,12.80
2018-12-15T06:35:25.970Z,14.05
2018-12-15T06:36:28.511Z,12.13
2018-12-15T06:37:31.022Z,12.80
2018-12-15T06:38:33.537Z,13.60
2018-12-15T06:39:36.042Z,12.50
2018-12-15T06:40:38.574Z,12.50
2018-12-15T06:41:41.097Z,11.95
2018-12-15T06:42:43.600Z,13.50
2018-12-15T06:43:46.190Z,11.93
2018-12-15T06:44:48.703Z,12.80
2018-12-15T06:45:51.261Z,12.60
2018-12-15T06:46:53.785Z,13.55
2018-12-15T06:47:56.292Z,12.50
2018-12-15T06:48:58.836Z,12.15
2018-12-15T06:50:01.341Z,13.58
2018-12-15T06:51:03.875Z,13.48
2018-12-15T06:52:06.421Z,13.93
2018-12-15T06:53:08.929Z,11.75
2018-12-15T06:54:11.441Z,12.70
2018-12-15T06:55:13.946Z,13.30
2018-12-15T06:56:16.487Z,13.55
2018-12-15T06:57:18.988Z,14.45
2018-12-15T06:58:21.519Z,13.48
2018-12-15T06:59:24.059Z,13.50
2018-12-15T07:00:26.570Z,14.07
2018-12-15T07:01:29.074Z,14.28
2018-12-15T07:02:31.593Z,12.82
2018-12-15T07:03:34.130Z,12.45
2018-12-15T07:04:36.646Z,12.90
2018-12-15T07:05:39.164Z,14.75
2018-12-15T07:06:42.127Z,13.90
2018-12-15T07:07:44.705Z,14.25
2018-12-15T07:08:47.245Z,13.85
2018-12-15T07:09:49.781Z,13.93
2018-12-15T07:10:52.289Z,14.60
2018-12-15T07:11:54.793Z,13.78
2018-12-15T07:12:57.305Z,14.10
2018-12-15T07:13:59.849Z,14.47
2018-12-15T07:15:02.352Z,13.13
2018-12-15T07:16:04.938Z,14.60
2018-12-15T07:17:07.501Z,15.15
2018-12-15T07:18:10.017Z,13.65
2018-12-15T07:19:12.518Z,15.28
2018-12-15T07:20:15.018Z,15.75
2018-12-15T07:21:17.569Z,15.60
2018-12-15T07:22:20.077Z,15.95
2018-12-15T07:23:22.590Z,14.70
2018-12-15T07:24:25.097Z,15.93
2018-12-15T07:25:27.603Z,16.32
2018-12-15T07:26:30.142Z,16.25
2018-12-15T07:27:32.646Z,16.32
2018-12-15T07:28:35.145Z,16.07
2018-12-15T07:29:37.645Z,16.42
2018-12-15T07:30:40.296Z,16.02
2018-12-15T07:31:42.872Z,15.53
2018-12-15T07:32:45.390Z,16.65
2018-12-15T07:33:47.934Z,16.67
2018-12-15T07:34:50.445Z,17.65
2018-12-15T07:35:52.950Z,19.92
2018-12-15T07:36:55.501Z,18.60
2018-12-15T07:37:58.065Z,20.43
2018-12-15T07:39:00.582Z,19.02
2018-12-15T07:40:03.346Z,17.45
2018-12-15T07:41:05.850Z,20.00
2018-12-15T07:42:08.389Z,18.52
2018-12-15T07:43:10.893Z,18.85
2018-12-15T07:44:13.448Z,19.82
2018-12-15T07:45:15.961Z,20.32
2018-12-15T07:46:18.562Z,19.98
2018-12-15T07:47:21.165Z,19.42
2018-12-15T07:48:23.670Z,19.92
2018-12-15T07:49:26.238Z,20.02
2018-12-15T07:50:28.749Z,19.80
2018-12-15T07:51:31.306Z,19.60
2018-12-15T07:52:33.854Z,21.07
2018-12-15T07:53:36.357Z,22.40
2018-12-15T07:54:38.862Z,22.13
2018-12-15T07:55:41.380Z,21.00
2018-12-15T07:56:43.921Z,21.02
2018-12-15T07:57:46.432Z,19.73
2018-12-15T07:58:49.060Z,20.25
2018-12-15T07:59:51.565Z,22.52
2018-12-15T08:00:54.098Z,22.30
2018-12-15T08:01:56.645Z,22.07
2018-12-15T08:02:59.157Z,21.10
2018-12-15T08:04:01.681Z,23.10
2018-12-15T08:05:05.196Z,23.45
2018-12-15T08:06:07.748Z,24.02
2018-12-15T08:07:10.286Z,23.50
2018-12-15T08:08:12.793Z,23.75
2018-12-15T08:09:15.314Z,24.15
2018-12-15T08:10:19.785Z,23.18
2018-12-15T08:11:27.945Z,24.30
2018-12-15T08:12:36.073Z,24.35
2018-12-15T08:13:40.547Z,24.37
2018-12-15T08:14:43.049Z,23.22
2018-12-15T08:15:45.682Z,23.42
2018-12-15T08:16:48.221Z,24.35
2018-12-15T08:17:50.730Z,24.47
2018-12-15T08:18:57.999Z,23.87
2018-12-15T08:19:57.758Z,24.57
2018-12-15T08:21:00.293Z,24.82
2018-12-15T08:22:02.830Z,23.73
2018-12-15T08:23:05.371Z,24.27
2018-12-15T08:24:07.883Z,26.37
2018-12-15T08:25:10.429Z,23.95
2018-12-15T08:26:12.971Z,23.90
2018-12-15T08:27:15.477Z,23.32
2018-12-15T08:28:17.975Z,23.52
2018-12-15T08:29:20.517Z,23.57
2018-12-15T08:30:23.066Z,24.72
2018-12-15T08:31:25.674Z,23.35
2018-12-15T08:32:28.181Z,25.70
2018-12-15T08:33:30.679Z,24.52
2018-12-15T08:34:33.186Z,24.57
2018-12-15T08:35:35.699Z,26.02
2018-12-15T08:36:38.258Z,26.30
2018-12-15T08:37:40.762Z,26.27
2018-12-15T08:38:43.313Z,24.40
2018-12-15T08:39:45.824Z,24.65
2018-12-15T08:40:48.373Z,24.92
2018-12-15T08:41:50.909Z,21.90
2018-12-15T08:42:53.413Z,24.37
2018-12-15T08:43:55.913Z,23.00
2018-12-15T08:44:58.415Z,23.42
2018-12-15T08:46:01.723Z,20.88
2018-12-15T08:47:04.254Z,21.95
2018-12-15T08:48:06.762Z,21.68
2018-12-15T08:49:09.298Z,21.85
2018-12-15T08:50:11.850Z,21.77
2018-12-15T08:51:14.502Z,21.95
2018-12-15T08:52:17.054Z,22.67
2018-12-15T08:53:19.593Z,20.00
2018-12-15T08:54:22.101Z,21.87
2018-12-15T08:55:24.624Z,22.22
2018-12-15T08:56:27.157Z,19.20
2018-12-15T08:57:29.690Z,20.45
2018-12-15T08:58:32.201Z,18.85
2018-12-15T08:59:34.701Z,21.15
2018-12-15T09:00:37.245Z,19.52
2018-12-15T09:01:39.801Z,20.75
2018-12-15T09:02:42.314Z,21.35
2018-12-15T09:03:44.822Z,19.92
2018-12-15T09:04:47.339Z,19.27
2018-12-15T09:05:49.878Z,20.05
2018-12-15T09:06:52.390Z,22.13
2018-12-15T09:07:54.912Z,20.08
2018-12-15T09:08:57.425Z,18.95
2018-12-15T09:09:59.977Z,20.02
2018-12-15T09:11:02.537Z,20.85
2018-12-15T09:12:05.049Z,20.95
2018-12-15T09:13:07.556Z,20.10
2018-12-15T09:14:10.141Z,19.73
2018-12-15T09:15:12.727Z,20.20
2018-12-15T09:16:15.238Z,20.02
2018-12-15T09:17:17.777Z,19.20
2018-12-15T09:18:20.394Z,19.15
2018-12-15T09:19:22.933Z,20.30
2018-12-15T09:20:25.450Z,20.30
2018-12-15T09:21:27.958Z,18.75
2018-12-15T09:22:30.461Z,19.90
2018-12-15T09:23:32.970Z,20.40
2018-12-15T09:24:35.509Z,19.52
2018-12-15T09:25:38.017Z,20.00
2018-12-15T09:26:40.529Z,20.27
2018-12-15T09:27:43.082Z,19.42
2018-12-15T09:28:45.644Z,19.60
2018-12-15T09:29:48.140Z,19.73
2018-12-15T09:30:50.697Z,19.82
2018-12-15T09:31:53.233Z,20.23
2018-12-15T09:32:55.782Z,17.87
2018-12-15T09:33:58.282Z,19.45
2018-12-15T09:35:00.801Z,21.95
2018-12-15T09:36:03.351Z,19.20
2018-12-15T09:37:05.877Z,19.95
2018-12-15T09:38:08.373Z,18.55
2018-12-15T09:39:10.874Z,19.02
2018-12-15T09:40:13.385Z,18.82
2018-12-15T09:41:15.882Z,18.15
2018-12-15T09:42:18.422Z,17.73
2018-12-15T09:43:20.934Z,17.50
2018-12-15T09:44:23.486Z,19.20
2018-12-15T09:45:26.041Z,18.05
2018-12-15T09:46:28.597Z,19.35
2018-12-15T09:47:31.133Z,16.87
2018-12-15T09:48:33.637Z,16.85
2018-12-15T09:49:36.152Z,17.98
2018-12-15T09:50:38.703Z,17.57
2018-12-15T09:51:41.205Z,18.75
2018-12-15T09:52:43.715Z,18.20
2018-12-15T09:53:46.225Z,17.15
2018-12-15T09:54:48.800Z,15.63
2018-12-15T09:55:51.341Z,16.35
2018-12-15T09:56:54.014Z,16.10
2018-12-15T09:57:56.566Z,16.20
2018-12-15T09:58:59.089Z,18.37
2018-12-15T10:00:01.632Z,17.20
2018-12-15T10:01:04.246Z,16.97
2018-12-15T10:02:06.830Z,15.50
2018-12-15T10:03:09.329Z,16.80
2018-12-15T10:04:11.880Z,17.70
2018-12-15T10:05:14.481Z,15.85
2018-12-15T10:06:16.998Z,15.15
2018-12-15T10:07:19.546Z,15.03
2018-12-15T10:08:22.057Z,14.35
2018-12-15T10:09:24.575Z,16.02
2018-12-15T10:10:27.104Z,14.65
2018-12-15T10:11:29.610Z,15.43
2018-12-15T10:12:32.151Z,15.95
2018-12-15T10:13:34.657Z,15.43
2018-12-15T10:14:37.194Z,16.70
2018-12-15T10:15:39.733Z,16.02
2018-12-15T10:16:42.284Z,15.32
2018-12-15T10:17:44.817Z,15.68
2018-12-15T10:18:47.317Z,15.98
2018-12-15T10:19:49.872Z,17.10
2018-12-15T10:20:52.381Z,15.85
2018-12-15T10:21:54.891Z,16.37
2018-12-15T10:22:57.397Z,17.55
2018-12-15T10:23:59.903Z,18.77
2018-12-15T10:25:02.502Z,17.98
2018-12-15T10:26:05.009Z,18.27
2018-12-15T10:27:07.513Z,17.87
2018-12-15T10:28:10.022Z,16.17
2018-12-15T10:29:14.490Z,18.05
2018-12-15T10:30:22.694Z,18.60
2018-12-15T10:31:30.862Z,18.87
2018-12-15T10:32:39.000Z,16.90
2018-12-15T10:33:41.586Z,17.10
2018-12-15T10:34:44.093Z,17.82
2018-12-15T10:35:46.635Z,18.12
2018-12-15T10:36:49.137Z,17.75
2018-12-15T10:37:51.649Z,17.57
2018-12-15T10:38:54.177Z,18.90
2018-12-15T10:39:56.684Z,18.80
2018-12-15T10:40:59.186Z,18.25
2018-12-15T10:42:01.693Z,19.32
2018-12-15T10:43:04.238Z,17.40
2018-12-15T10:44:06.742Z,18.20
2018-12-15T10:45:09.305Z,18.90
2018-12-15T10:46:11.861Z,17.48
2018-12-15T10:47:14.357Z,17.37
2018-12-15T10:48:16.896Z,19.37
2018-12-15T10:49:19.521Z,18.55
2018-12-15T10:50:22.025Z,17.40
2018-12-15T10:51:24.529Z,19.45
2018-12-15T10:52:27.080Z,17.07
2018-12-15T10:53:29.613Z,18.80
2018-12-15T10:54:32.122Z,19.48
2018-12-15T10:55:34.629Z,18.98
2018-12-15T10:56:37.143Z,18.32
2018-12-15T10:57:39.728Z,19.35
2018-12-15T10:58:42.229Z,18.57
2018-12-15T10:59:44.741Z,18.12
2018-12-15T11:00:52.882Z,17.00
2018-12-15T11:01:55.393Z,17.52
2018-12-15T11:02:57.954Z,18.57
2018-12-15T11:04:00.917Z,18.35
2018-12-15T11:05:04.404Z,19.75
2018-12-15T11:06:06.917Z,20.45
2018-12-15T11:07:09.429Z,19.32
2018-12-15T11:08:11.978Z,19.27
2018-12-15T11:09:14.481Z,18.40
2018-12-15T11:10:16.994Z,17.48
2018-12-15T11:11:19.553Z,16.80
2018-12-15T11:12:22.058Z,17.48
2018-12-15T11:13:24.607Z,17.90
2018-12-15T11:14:27.117Z,17.65
2018-12-15T11:15:29.629Z,17.60
2018-12-15T11:16:32.135Z,18.50
2018-12-15T11:17:34.644Z,17.20
2018-12-15T11:18:37.198Z,17.17
2018-12-15T11:19:39.714Z,16.70
2018-12-15T11:20:42.221Z,17.52
2018-12-15T11:21:45.014Z,17.48
2018-12-15T11:22:47.517Z,17.92
2018-12-15T11:23:50.030Z,18.75
2018-12-15T11:24:52.573Z,16.80
2018-12-15T11:25:55.086Z,17.30
2018-12-15T11:26:57.617Z,18.25
2018-12-15T11:28:00.151Z,18.45
2018-12-15T11:29:02.709Z,18.20
2018-12-15T11:30:05.646Z,18.40
2018-12-15T11:31:08.145Z,18.15
2018-12-15T11:32:10.649Z,17.48
2018-12-15T11:33:13.160Z,17.80
2018-12-15T11:34:15.696Z,18.62
2018-12-15T11:35:18.252Z,18.95
2018-12-15T11:36:20.781Z,18.30
2018-12-15T11:37:23.285Z,16.07
2018-12-15T11:38:25.797Z,16.02
2018-12-15T11:39:28.305Z,19.20
2018-12-15T11:40:30.853Z,18.02
2018-12-15T11:41:33.366Z,18.40
2018-12-15T11:42:35.926Z,17.65
2018-12-15T11:43:38.445Z,17.67
2018-12-15T11:44:40.973Z,17.87
2018-12-15T11:45:43.516Z,18.27
2018-12-15T11:46:46.073Z,16.45
2018-12-15T11:47:48.586Z,16.62
2018-12-15T11:48:51.125Z,17.67
2018-12-15T11:49:53.687Z,16.10
2018-12-15T11:50:56.184Z,18.15
2018-12-15T11:51:58.721Z,16.65
2018-12-15T11:53:01.410Z,16.77
2018-12-15T11:54:04.044Z,16.35
2018-12-15T11:55:06.607Z,15.53
2018-12-15T11:56:09.114Z,15.58
2018-12-15T11:57:11.674Z,16.40
2018-12-15T11:58:14.181Z,17.17
2018-12-15T11:59:16.722Z,15.68
2018-12-15T12:00:19.230Z,15.10
2018-12-15T12:01:21.737Z,16.50
2018-12-15T12:02:24.263Z,16.30
2018-12-15T12:03:26.832Z,15.48
2018-12-15T12:04:29.495Z,16.45
2018-12-15T12:05:32.113Z,15.98
2018-12-15T12:06:34.664Z,15.95
2018-12-15T12:07:37.197Z,16.90
2018-12-15T12:08:39.741Z,16.90
2018-12-15T12:09:42.277Z,18.17
2018-12-15T12:10:44.789Z,15.35
2018-12-15T12:11:47.291Z,16.25
2018-12-15T12:12:49.806Z,16.32
2018-12-15T12:13:52.314Z,16.25
2018-12-15T12:14:54.861Z,15.45
2018-12-15T12:15:57.365Z,16.93
2018-12-15T12:16:59.862Z,16.70
2018-12-15T12:18:02.401Z,15.95
2018-12-15T12:19:04.901Z,14.98
2018-12-15T12:20:07.847Z,14.87
2018-12-15T12:21:10.349Z,15.65
2018-12-15T12:22:12.944Z,16.93
2018-12-15T12:23:15.453Z,15.30
2018-12-15T12:24:17.952Z,15.05
2018-12-15T12:25:20.533Z,16.35
2018-12-15T12:26:23.078Z,13.18
2018-12-15T12:27:25.586Z,12.43
2018-12-15T12:28:28.134Z,14.53
2018-12-15T12:29:30.647Z,13.53
2018-12-15T12:30:33.162Z,14.60
2018-12-15T12:31:35.667Z,15.43
2018-12-15T12:32:38.177Z,15.48
2018-12-15T12:33:40.721Z,12.15
2018-12-15T12:34:43.234Z,12.70
2018-12-15T12:35:45.749Z,11.73
2018-12-15T12:36:48.258Z,12.50
2018-12-15T12:37:50.765Z,12.20
2018-12-15T12:38:53.317Z,12.50
2018-12-15T12:39:55.833Z,13.80
2018-12-15T12:40:58.338Z,12.47
2018-12-15T12:42:00.846Z,14.00
2018-12-15T12:43:03.356Z,12.60
2018-12-15T12:44:05.904Z,10.65
2018-12-15T12:45:08.685Z,12.00
2018-12-15T12:46:11.251Z,13.35
2018-12-15T12:47:13.788Z,13.80
2018-12-15T12:48:16.298Z,11.03
2018-12-15T12:49:18.809Z,11.18
2018-12-15T12:50:21.369Z,12.20
2018-12-15T12:51:23.873Z,11.43
2018-12-15T12:52:26.417Z,11.48
2018-12-15T12:53:28.918Z,13.00
2018-12-15T12:54:31.421Z,11.12
2018-12-15T12:55:33.929Z,11.20
2018-12-15T12:56:36.429Z,12.13
2018-12-15T12:57:38.973Z,12.35
2018-12-15T12:58:41.485Z,11.30
2018-12-15T12:59:43.993Z,11.28
2018-12-15T13:00:46.493Z,11.97
2018-12-15T13:01:49.057Z,12.18
2018-12-15T13:02:51.737Z,12.20
2018-12-15T13:03:54.249Z,11.60
2018-12-15T13:04:56.765Z,10.35
2018-12-15T13:05:59.274Z,10.98
2018-12-15T13:07:01.782Z,13.05
2018-12-15T13:08:04.370Z,11.90
2018-12-15T13:09:06.933Z,10.88
2018-12-15T13:10:09.501Z,10.85
2018-12-15T13:11:12.041Z,11.35
2018-12-15T13:12:14.597Z,11.10
2018-12-15T13:13:17.142Z,11.18
2018-12-15T13:14:19.752Z,10.90
2018-12-15T13:15:22.298Z,10.98
2018-12-15T13:16:24.853Z,11.00
2018-12-15T13:17:27.442Z,12.70
2018-12-15T13:18:29.949Z,11.57
2018-12-15T13:19:32.453Z,11.28
2018-12-15T13:20:35.014Z,11.25
2018-12-15T13:21:37.529Z,10.78
2018-12-15T13:22:40.068Z,11.03
2018-12-15T13:23:43.077Z,11.18
2018-12-15T13:24:45.577Z,11.10
2018-12-15T13:25:48.084Z,10.72
2018-12-15T13:26:50.598Z,9.90
2018-12-15T13:27:53.139Z,11.15
2018-12-15T13:28:55.644Z,9.93
2018-12-15T13:29:58.254Z,10.03